createdAt,value
2023-03-02T00:01:25.903Z,73.77
2023-03-02T00:03:53.890Z,73.67
2023-03-02T00:06:21.391Z,74.70
2023-03-02T00:08:48.399Z,74.94
2023-03-02T00:11:15.737Z,75.34
2023-03-02T00:13:43.543Z,75.43
2023-03-02T00:16:10.299Z,75.36
2023-03-02T00:18:37.556Z,75.58
2023-03-02T00:21:04.491Z,75.23
2023-03-02T00:23:31.132Z,75.41
2023-03-02T00:25:57.882Z,75.41
2023-03-02T00:28:24.587Z,75.65
2023-03-02T00:30:51.185Z,75.47
2023-03-02T00:33:19.340Z,75.67
2023-03-02T00:35:46.730Z,75.40
2023-03-02T00:38:13.381Z,75.24
2023-03-02T00:40:45.268Z,75.31
2023-03-02T00:43:12.711Z,75.53
2023-03-02T00:45:39.335Z,75.45
2023-03-02T00:48:06.529Z,75.54
2023-03-02T00:50:38.689Z,75.85
2023-03-02T00:53:05.213Z,75.78
2023-03-02T00:55:32.153Z,75.82
2023-03-02T00:57:58.895Z,75.93
2023-03-02T01:00:28.439Z,76.13
2023-03-02T01:02:57.468Z,76.34
2023-03-02T01:05:24.426Z,76.27
2023-03-02T01:07:51.427Z,76.22
2023-03-02T01:10:18.332Z,76.34
2023-03-02T01:12:45.147Z,76.29
2023-03-02T01:15:12.116Z,76.34
2023-03-02T01:17:40.717Z,76.58
2023-03-02T01:20:08.425Z,76.81
2023-03-02T01:22:38.332Z,76.79
2023-03-02T01:25:06.162Z,76.88
2023-03-02T01:27:32.943Z,76.93
2023-03-02T01:29:59.568Z,77.05
2023-03-02T01:32:26.714Z,77.02
2023-03-02T01:34:54.154Z,77.03
2023-03-02T01:37:22.348Z,77.07
2023-03-02T01:39:50.189Z,77.10
2023-03-02T01:42:17.268Z,77.15
2023-03-02T01:44:46.588Z,77.15
2023-03-02T01:47:16.132Z,77.18
2023-03-02T01:50:02.848Z,77.21
2023-03-02T01:52:37.617Z,77.13
2023-03-02T01:55:08.269Z,77.13
2023-03-02T01:57:42.945Z,77.26
2023-03-02T02:00:14.056Z,77.28
2023-03-02T02:02:41.508Z,77.36
2023-03-02T02:05:15.307Z,77.39
2023-03-02T02:07:43.241Z,77.45
2023-03-02T02:10:11.942Z,77.47
2023-03-02T02:12:38.726Z,77.47
2023-03-02T02:15:06.467Z,77.55
2023-03-02T02:17:34.072Z,77.48
2023-03-02T02:20:23.509Z,77.43
2023-03-02T02:23:18.837Z,77.40
2023-03-02T02:26:34.920Z,77.48
2023-03-02T02:29:05.555Z,77.47
2023-03-02T02:31:35.156Z,77.36
2023-03-02T02:34:41.098Z,77.32
2023-03-02T02:37:14.608Z,77.46
2023-03-02T02:39:45.619Z,77.70
2023-03-02T02:42:19.058Z,77.82
2023-03-02T02:44:47.226Z,78.28
2023-03-02T02:47:20.458Z,78.66
2023-03-02T02:49:51.287Z,79.30
2023-03-02T02:52:21.323Z,79.48
2023-03-02T02:54:51.354Z,79.77
2023-03-02T02:57:21.055Z,80.20
2023-03-02T02:59:50.590Z,80.62
2023-03-02T03:02:24.823Z,81.15
2023-03-02T03:05:02.851Z,81.28
2023-03-02T03:07:32.574Z,81.78
2023-03-02T03:10:18.553Z,81.75
2023-03-02T03:12:46.820Z,81.99
2023-03-02T03:15:15.923Z,82.13
2023-03-02T03:17:56.323Z,82.10
2023-03-02T03:20:24.824Z,82.25
2023-03-02T03:22:55.109Z,82.15
2023-03-02T03:25:27.935Z,82.08
2023-03-02T03:27:54.852Z,82.12
2023-03-02T03:30:22.080Z,81.89
2023-03-02T03:32:49.172Z,81.76
2023-03-02T03:35:16.181Z,81.75
2023-03-02T03:37:42.968Z,81.88
2023-03-02T03:40:10.705Z,81.77
2023-03-02T03:42:39.461Z,81.60
2023-03-02T03:45:08.282Z,81.62
2023-03-02T03:47:36.420Z,81.68
2023-03-02T03:50:03.771Z,81.64
2023-03-02T03:52:31.238Z,81.77
2023-03-02T03:55:05.142Z,81.91
2023-03-02T03:57:32.501Z,81.97
2023-03-02T03:59:59.266Z,82.01
2023-03-02T04:02:26.847Z,82.00
2023-03-02T04:04:53.755Z,82.00
2023-03-02T04:07:20.893Z,81.89
2023-03-02T04:09:47.799Z,82.01
2023-03-02T04:12:15.873Z,82.33
2023-03-02T04:14:47.123Z,82.59
2023-03-02T04:17:14.176Z,82.93
2023-03-02T04:19:45.117Z,83.46
2023-03-02T04:22:11.752Z,83.25
2023-03-02T04:24:38.453Z,83.47
2023-03-02T04:27:05.467Z,84.11
2023-03-02T04:29:34.762Z,84.38
2023-03-02T04:32:04.056Z,84.57
2023-03-02T04:34:33.231Z,84.78
2023-03-02T04:37:00.618Z,84.70
2023-03-02T04:39:27.438Z,84.60
2023-03-02T04:41:54.675Z,84.53
2023-03-02T04:44:21.842Z,84.46
2023-03-02T04:46:50.039Z,84.60
2023-03-02T04:49:19.291Z,84.88
2023-03-02T06:17:52.489Z,84.88
2023-03-02T06:20:19.905Z,84.84
2023-03-02T06:22:46.505Z,85.05
2023-03-02T06:25:16.464Z,85.28
2023-03-02T06:27:43.847Z,85.40
2023-03-02T06:30:14.138Z,85.43
2023-03-02T06:32:41.403Z,85.47
2023-03-02T06:35:09.254Z,85.58
2023-03-02T06:37:36.369Z,85.64
2023-03-02T06:40:11.380Z,85.60
2023-03-02T06:42:39.116Z,85.55
2023-03-02T06:45:06.843Z,85.57
2023-03-02T06:47:34.270Z,85.60
2023-03-02T06:50:01.816Z,85.59
2023-03-02T06:52:28.790Z,85.59
2023-03-02T06:54:55.946Z,85.75
2023-03-02T06:57:23.072Z,85.77
2023-03-02T06:59:49.839Z,85.74
2023-03-02T07:02:16.510Z,85.78
2023-03-02T07:04:43.327Z,85.78
2023-03-02T07:07:10.305Z,85.76
2023-03-02T07:09:37.510Z,85.75
2023-03-02T07:12:04.464Z,85.83
2023-03-02T07:14:31.022Z,85.80
2023-03-02T07:16:59.705Z,85.85
2023-03-02T07:19:26.510Z,85.85
2023-03-02T07:21:53.104Z,85.81
2023-03-02T07:24:19.996Z,85.81
2023-03-02T07:26:46.770Z,85.79
2023-03-02T07:29:13.431Z,85.69
2023-03-02T07:31:40.255Z,85.74
2023-03-02T07:34:07.105Z,85.84
2023-03-02T07:36:33.710Z,85.80
2023-03-02T07:39:02.956Z,85.77
2023-03-02T07:41:29.663Z,85.87
2023-03-02T07:43:56.836Z,85.80
2023-03-02T07:46:23.838Z,85.71
2023-03-02T07:48:51.538Z,85.60
2023-03-02T07:51:18.403Z,85.64
2023-03-02T07:53:45.119Z,85.52
2023-03-02T07:56:12.068Z,85.51
2023-03-02T07:58:38.773Z,85.65
2023-03-02T08:01:05.585Z,85.82
2023-03-02T08:03:32.646Z,85.72
2023-03-02T08:06:07.805Z,85.52
2023-03-02T08:08:35.744Z,85.77
2023-03-02T08:11:11.334Z,85.97
2023-03-02T08:13:38.225Z,86.02
2023-03-02T08:16:06.938Z,86.04
2023-03-02T08:18:34.673Z,86.03
2023-03-02T08:21:02.723Z,86.12
2023-03-02T08:23:29.540Z,86.10
2023-03-02T08:25:56.512Z,85.97
2023-03-02T08:28:24.141Z,85.83
2023-03-02T08:30:55.930Z,85.91
2023-03-02T08:33:23.258Z,86.07
2023-03-02T08:36:02.094Z,86.07
2023-03-02T08:38:29.995Z,86.09
2023-03-02T08:40:57.285Z,85.89
2023-03-02T08:43:25.228Z,85.93
2023-03-02T08:45:59.001Z,85.96
2023-03-02T08:48:27.211Z,86.02
2023-03-02T08:50:57.725Z,85.91
2023-03-02T08:53:25.318Z,85.89
2023-03-02T08:55:52.436Z,86.06
2023-03-02T08:58:19.118Z,86.31
2023-03-02T09:00:46.143Z,86.40
2023-03-02T09:03:13.087Z,86.45
2023-03-02T09:05:39.975Z,86.45
2023-03-02T09:08:07.837Z,86.41
2023-03-02T09:10:35.651Z,86.40
2023-03-02T09:13:02.259Z,86.10
2023-03-02T09:15:29.120Z,86.17
2023-03-02T09:17:56.310Z,86.25
2023-03-02T09:20:23.073Z,86.32
2023-03-02T09:22:50.480Z,86.31
2023-03-02T09:25:18.308Z,85.96
2023-03-02T09:27:46.534Z,85.87
2023-03-02T09:30:14.507Z,85.92
2023-03-02T09:32:41.990Z,85.89
2023-03-02T09:35:08.852Z,86.00
2023-03-02T09:37:38.371Z,86.06
2023-03-02T09:40:16.137Z,85.96
2023-03-02T09:42:49.064Z,85.81
2023-03-02T09:45:31.290Z,85.66
2023-03-02T09:48:25.215Z,85.62
2023-03-02T09:51:06.955Z,85.80
2023-03-02T09:53:51.773Z,86.52
2023-03-02T09:56:20.475Z,85.22
2023-03-02T09:58:53.630Z,84.53
2023-03-02T10:01:42.195Z,84.18
2023-03-02T10:04:21.413Z,84.01
2023-03-02T10:06:55.032Z,83.96
2023-03-02T10:09:21.902Z,83.76
2023-03-02T10:12:00.471Z,83.46
2023-03-02T10:14:34.935Z,83.29
2023-03-02T10:17:21.238Z,83.13
2023-03-02T10:20:01.188Z,83.01
2023-03-02T10:22:42.489Z,82.76
2023-03-02T10:25:37.610Z,82.80
2023-03-02T10:28:28.012Z,82.55
2023-03-02T10:31:09.568Z,82.34
2023-03-02T10:33:45.459Z,82.18
2023-03-02T10:36:23.737Z,82.17
2023-03-02T10:38:52.014Z,82.01
2023-03-02T10:41:28.053Z,81.70
2023-03-02T10:44:03.917Z,81.47
2023-03-02T10:46:42.176Z,81.47
2023-03-02T10:49:24.548Z,81.39
2023-03-02T10:52:05.955Z,81.10
2023-03-02T10:54:34.820Z,80.91
2023-03-02T10:57:05.071Z,80.57
2023-03-02T10:59:43.232Z,80.40
2023-03-02T11:02:15.474Z,80.22
2023-03-02T11:04:42.801Z,80.29
2023-03-02T11:07:19.233Z,80.21
2023-03-02T11:10:18.851Z,80.19
2023-03-02T11:12:48.071Z,80.01
2023-03-02T11:15:29.245Z,79.99
2023-03-02T11:18:06.012Z,79.96
2023-03-02T11:20:43.066Z,79.98
2023-03-02T11:23:19.253Z,80.22
2023-03-02T11:25:56.548Z,80.35
2023-03-02T11:28:45.378Z,80.43
2023-03-02T11:31:22.060Z,80.31
2023-03-02T11:34:15.649Z,80.53
2023-03-02T11:37:11.559Z,80.29
2023-03-02T11:40:00.696Z,80.08
2023-03-02T11:42:30.234Z,80.13
2023-03-02T11:45:01.345Z,80.55
2023-03-02T11:47:31.319Z,80.66
2023-03-02T11:50:04.499Z,80.49
2023-03-02T11:52:36.151Z,80.46
2023-03-02T11:55:13.628Z,80.50
2023-03-02T11:57:48.253Z,80.52
2023-03-02T12:00:31.005Z,80.80
2023-03-02T12:03:17.574Z,80.92
2023-03-02T12:05:57.786Z,81.05
2023-03-02T12:08:24.510Z,81.08
2023-03-02T12:11:08.370Z,81.10
2023-03-02T12:13:40.049Z,81.30
2023-03-02T12:16:34.283Z,81.12
2023-03-02T12:19:25.591Z,81.16
2023-03-02T12:22:01.929Z,81.24
2023-03-02T12:24:34.968Z,81.21
2023-03-02T12:27:04.828Z,81.36
2023-03-02T12:29:44.397Z,81.48
2023-03-02T12:32:26.682Z,81.47
2023-03-02T12:35:08.914Z,81.36
2023-03-02T12:37:46.853Z,81.54
2023-03-02T12:40:33.323Z,81.55
2023-03-02T12:43:23.559Z,81.46
2023-03-02T12:45:59.318Z,81.49
2023-03-02T12:48:50.454Z,81.49
2023-03-02T12:51:25.610Z,81.36
2023-03-02T12:54:29.780Z,81.39
2023-03-02T12:57:06.603Z,81.42
2023-03-02T12:59:35.990Z,81.37
2023-03-02T13:02:28.283Z,81.26
2023-03-02T13:05:01.451Z,81.14
2023-03-02T13:07:36.346Z,81.33
2023-03-02T13:10:29.022Z,81.18
2023-03-02T13:12:57.749Z,81.28
2023-03-02T13:15:25.078Z,81.10
2023-03-02T13:17:55.024Z,81.02
2023-03-02T13:20:24.760Z,80.80
2023-03-02T13:22:51.762Z,80.71
2023-03-02T13:25:26.354Z,80.92
2023-03-02T13:28:10.570Z,81.06
2023-03-02T13:30:43.163Z,81.21
2023-03-02T13:33:23.152Z,80.78
2023-03-02T13:35:50.266Z,80.51
2023-03-02T13:38:19.222Z,80.56
2023-03-02T13:40:51.235Z,80.65
2023-03-02T13:43:38.931Z,80.68
2023-03-02T13:46:28.316Z,80.44
2023-03-02T13:49:10.131Z,80.12
2023-03-02T13:51:41.099Z,79.93
2023-03-02T13:54:25.220Z,79.91
2023-03-02T13:56:53.809Z,79.92
2023-03-02T13:59:21.779Z,79.49
2023-03-02T14:01:49.172Z,79.31
2023-03-02T14:04:21.104Z,79.42
2023-03-02T14:06:52.088Z,79.55
2023-03-02T14:09:19.520Z,79.61
2023-03-02T14:11:52.786Z,79.65
2023-03-02T14:14:23.721Z,79.74
2023-03-02T14:16:50.656Z,79.85
2023-03-02T14:19:18.069Z,79.79
2023-03-02T14:21:45.837Z,79.56
2023-03-02T14:24:12.404Z,79.45
2023-03-02T14:26:49.801Z,79.34
2023-03-02T14:29:24.668Z,79.25
2023-03-02T14:31:52.780Z,79.29
2023-03-02T14:34:19.495Z,79.29
2023-03-02T14:36:50.492Z,79.18
2023-03-02T14:39:37.219Z,79.17
2023-03-02T14:42:06.432Z,79.14
2023-03-02T14:44:33.116Z,79.23
2023-03-02T14:46:59.952Z,79.28
2023-03-02T14:49:26.969Z,79.16
2023-03-02T14:52:33.685Z,79.17
2023-03-02T14:55:05.964Z,79.26
2023-03-02T14:57:38.124Z,79.23
2023-03-02T15:00:06.879Z,79.23
2023-03-02T15:02:34.493Z,79.32
2023-03-02T15:05:01.360Z,79.41
2023-03-02T15:07:28.450Z,79.44
2023-03-02T15:09:56.910Z,79.51
2023-03-02T15:12:24.392Z,79.41
2023-03-02T15:14:51.202Z,79.35
2023-03-02T15:17:18.982Z,79.39
2023-03-02T15:19:46.538Z,79.38
2023-03-02T15:22:13.409Z,79.46
2023-03-02T15:24:40.097Z,79.46
2023-03-02T15:27:07.184Z,79.50
2023-03-02T15:29:34.245Z,79.64
2023-03-02T15:32:00.926Z,79.57
2023-03-02T15:34:28.684Z,79.52
2023-03-02T15:36:55.413Z,79.56
2023-03-02T15:39:22.243Z,79.69
2023-03-02T15:41:49.354Z,79.77
2023-03-02T15:44:21.367Z,79.78
2023-03-02T15:46:56.597Z,79.76
2023-03-02T15:49:26.798Z,79.81
2023-03-02T15:51:57.646Z,79.75
2023-03-02T15:54:26.238Z,79.79
2023-03-02T15:56:53.084Z,79.79
2023-03-02T15:59:21.667Z,79.62
2023-03-02T16:01:49.296Z,79.55
2023-03-02T16:04:16.315Z,79.64
2023-03-02T16:06:44.123Z,79.72
2023-03-02T16:09:11.126Z,79.77
2023-03-02T16:11:38.004Z,79.80
2023-03-02T16:14:05.258Z,79.59
2023-03-02T16:16:32.480Z,79.54
2023-03-02T16:18:59.339Z,79.23
2023-03-02T16:21:28.236Z,79.00
2023-03-02T16:24:02.356Z,79.01
2023-03-02T16:26:29.157Z,78.93
2023-03-02T16:28:56.309Z,78.91
2023-03-02T16:31:26.065Z,78.70
2023-03-02T16:33:55.531Z,78.51
2023-03-02T16:36:22.514Z,78.53
2023-03-02T16:38:49.404Z,78.47
2023-03-02T16:41:21.714Z,78.27
2023-03-02T16:43:54.436Z,78.28
2023-03-02T16:46:23.226Z,78.15
2023-03-02T16:48:50.653Z,78.33
2023-03-02T16:51:19.115Z,78.19
2023-03-02T16:53:46.658Z,78.12
2023-03-02T16:56:14.957Z,78.21
2023-03-02T16:58:42.374Z,78.05
2023-03-02T17:01:15.892Z,78.27
2023-03-02T17:03:43.790Z,78.22
2023-03-02T17:06:12.898Z,78.20
2023-03-02T17:08:40.249Z,77.89
2023-03-02T17:11:10.118Z,77.92
2023-03-02T17:13:36.974Z,77.88
2023-03-02T17:16:04.142Z,78.02
2023-03-02T17:18:33.209Z,77.88
2023-03-02T17:21:00.437Z,78.08
2023-03-02T17:23:27.792Z,78.18
2023-03-02T17:25:55.483Z,78.14
2023-03-02T17:28:22.624Z,78.29
2023-03-02T17:30:49.560Z,78.26
2023-03-02T17:33:17.607Z,78.38
2023-03-02T17:35:45.600Z,78.38
2023-03-02T17:38:13.978Z,78.38
2023-03-02T17:40:44.130Z,78.62
2023-03-02T17:43:12.166Z,78.63
2023-03-02T17:45:39.258Z,78.57
2023-03-02T17:48:06.535Z,78.84
2023-03-02T17:50:34.142Z,79.03
2023-03-02T17:53:02.493Z,79.14
2023-03-02T17:55:33.107Z,79.08
2023-03-02T17:58:04.199Z,79.22
2023-03-02T18:00:30.994Z,79.44
2023-03-02T18:02:57.692Z,79.57
2023-03-02T18:05:25.220Z,79.68
2023-03-02T18:07:53.919Z,79.88
2023-03-02T18:10:20.585Z,80.05
2023-03-02T18:12:48.813Z,80.02
2023-03-02T18:15:16.455Z,80.01
2023-03-02T18:17:43.259Z,80.30
2023-03-02T18:20:10.699Z,80.34
2023-03-02T18:22:37.595Z,80.45
2023-03-02T18:25:05.289Z,80.34
2023-03-02T18:27:32.332Z,80.34
2023-03-02T18:29:59.029Z,80.75
2023-03-02T18:32:25.910Z,80.96
2023-03-02T18:34:52.972Z,81.17
2023-03-02T18:37:19.913Z,81.18
2023-03-02T18:39:47.380Z,81.22
2023-03-02T18:42:14.383Z,81.27
2023-03-02T18:44:41.128Z,81.33
2023-03-02T18:47:09.432Z,81.34
2023-03-02T18:49:37.818Z,81.18
2023-03-02T18:52:06.361Z,81.18
2023-03-02T18:54:33.862Z,81.19
2023-03-02T18:57:02.068Z,81.22
2023-03-02T18:59:29.323Z,81.06
2023-03-02T19:01:56.902Z,81.00
2023-03-02T19:04:26.607Z,80.91
2023-03-02T19:06:55.947Z,80.88
2023-03-02T19:09:23.201Z,80.96
2023-03-02T19:11:50.702Z,80.98
2023-03-02T19:14:17.706Z,80.87
2023-03-02T19:16:45.065Z,80.86
2023-03-02T19:19:12.112Z,80.85
2023-03-02T19:21:39.350Z,80.90
2023-03-02T19:24:07.676Z,80.95
2023-03-02T19:26:35.705Z,81.03
2023-03-02T19:29:03.137Z,81.09
2023-03-02T19:31:32.714Z,81.17
2023-03-02T19:33:59.876Z,81.19
2023-03-02T19:36:27.271Z,81.19
2023-03-02T19:38:53.957Z,81.23
2023-03-02T19:41:21.353Z,81.25
2023-03-02T19:43:48.491Z,81.21
2023-03-02T19:46:16.649Z,81.09
2023-03-02T19:48:44.117Z,81.10
2023-03-02T19:51:31.926Z,81.06
2023-03-02T19:54:04.160Z,81.02
2023-03-02T19:56:37.369Z,81.13
2023-03-02T19:59:04.600Z,81.10
2023-03-02T20:01:31.362Z,81.06
2023-03-02T20:03:59.544Z,81.03
2023-03-02T20:06:30.346Z,81.03
2023-03-02T20:09:00.942Z,81.07
2023-03-02T20:11:37.665Z,81.04
2023-03-02T20:14:04.676Z,81.05
2023-03-02T20:16:36.710Z,81.02
2023-03-02T20:19:22.023Z,81.03
2023-03-02T20:21:50.340Z,81.06
2023-03-02T20:24:17.290Z,81.06
2023-03-02T20:27:14.803Z,80.98
2023-03-02T20:29:44.817Z,81.02
2023-03-02T20:32:16.638Z,81.07
2023-03-02T20:34:52.236Z,81.15
2023-03-02T20:40:06.378Z,81.22
2023-03-02T20:42:59.798Z,81.14
2023-03-02T20:49:32.121Z,80.96
2023-03-02T20:52:36.588Z,80.95
2023-03-02T20:55:09.736Z,80.97
2023-03-02T20:57:37.085Z,81.01
2023-03-02T21:00:06.748Z,81.03
2023-03-02T21:02:33.690Z,81.05
2023-03-02T21:09:01.014Z,81.17
2023-03-02T21:11:46.764Z,81.22
2023-03-02T21:14:43.178Z,81.10
2023-03-02T21:17:09.813Z,81.06
2023-03-02T21:19:36.982Z,81.09
2023-03-02T21:22:04.747Z,81.17
2023-03-02T21:24:31.447Z,81.21
2023-03-02T21:27:00.777Z,81.15
2023-03-02T21:29:27.890Z,81.20
2023-03-02T21:31:55.309Z,81.26
2023-03-02T21:34:22.743Z,81.26
2023-03-02T21:37:08.327Z,81.32
2023-03-02T21:42:42.733Z,81.26
2023-03-02T21:45:11.794Z,81.13
2023-03-02T21:47:41.360Z,81.02
2023-03-02T21:53:07.308Z,81.10
2023-03-02T21:55:35.220Z,81.12
2023-03-02T21:58:03.997Z,81.08
2023-03-02T22:00:34.442Z,81.01
2023-03-02T22:03:02.918Z,80.95
2023-03-02T22:09:11.429Z,80.95
2023-03-02T22:11:41.642Z,80.93
2023-03-02T22:14:17.996Z,80.96
2023-03-02T22:20:55.742Z,81.04
2023-03-02T22:23:26.450Z,81.20
2023-03-02T22:26:00.497Z,81.35
2023-03-02T22:28:58.240Z,81.50
2023-03-02T22:31:25.591Z,81.49
2023-03-02T22:33:53.309Z,81.52
2023-03-02T22:36:42.094Z,81.59
2023-03-02T22:46:28.502Z,81.51
2023-03-02T22:48:58.336Z,81.53
2023-03-02T22:51:48.077Z,81.57
2023-03-02T22:54:37.815Z,81.49
2023-03-02T22:57:21.414Z,81.50
2023-03-02T22:59:48.754Z,81.52
2023-03-02T23:02:20.474Z,81.47
2023-03-02T23:04:48.272Z,81.47
2023-03-02T23:07:21.001Z,81.55
2023-03-02T23:09:49.723Z,81.46
2023-03-02T23:12:27.674Z,81.45
2023-03-02T23:14:56.680Z,81.52
2023-03-02T23:17:38.152Z,81.56
2023-03-02T23:20:09.420Z,81.51
2023-03-02T23:22:38.384Z,81.50
2023-03-02T23:25:07.345Z,81.41
2023-03-02T23:27:34.824Z,81.47
2023-03-02T23:30:02.312Z,81.90
2023-03-02T23:32:29.178Z,82.21
2023-03-02T23:34:55.915Z,82.37
2023-03-02T23:37:22.837Z,82.53
2023-03-02T23:39:49.951Z,82.95
2023-03-02T23:42:16.737Z,83.09
2023-03-02T23:44:44.114Z,83.16
2023-03-02T23:47:11.069Z,83.45
2023-03-02T23:49:38.213Z,83.61
2023-03-02T23:52:05.515Z,83.68
2023-03-02T23:54:34.220Z,83.75
2023-03-02T23:57:01.015Z,84.02
2023-03-02T23:59:27.660Z,84.10
